sim
Sign-in with your pilot id or email,
or register
Callsign
Passwort

Schedule Details

Flight Number: RYR3783 (2)
Departure: Palma de Mallorca Airport (LEPA) at 12:55
Arrival: Bremen Airport (EDDW) at 15:35
Route: Ryanair Passenger Schedule. Enter filed route here before submitting Pirep.

Weather Information
Getting current METAR information for LEPA 101900Z 26012KT 9999 FEW040 27/22 Q1014 NOSIG
Getting current METAR information for EDDW 101850Z 30006KT 9999 FEW027 14/11 Q1016 NOSIG

Schedule Frequency

Route Map